createdAt,value
2022-12-25T00:01:40.089Z,10.20
2022-12-25T00:04:06.807Z,10.20
2022-12-25T00:06:33.492Z,10.20
2022-12-25T00:09:00.144Z,10.20
2022-12-25T00:11:26.787Z,10.20
2022-12-25T00:13:53.362Z,10.20
2022-12-25T00:16:22.295Z,10.20
2022-12-25T00:18:49.972Z,10.20
2022-12-25T00:21:17.333Z,10.10
2022-12-25T00:23:44.139Z,10.10
2022-12-25T00:26:17.769Z,10.10
2022-12-25T00:28:44.845Z,10.10
2022-12-25T00:31:17.033Z,10.10
2022-12-25T00:33:45.861Z,10.10
2022-12-25T00:36:14.523Z,10.10
2022-12-25T00:38:41.994Z,10.10
2022-12-25T00:41:11.731Z,10.10
2022-12-25T00:43:44.324Z,10.10
2022-12-25T00:46:12.630Z,10.00
2022-12-25T00:48:39.661Z,10.00
2022-12-25T00:51:08.710Z,10.00
2022-12-25T00:53:35.505Z,10.00
2022-12-25T00:56:04.639Z,10.00
2022-12-25T00:58:33.650Z,10.00
2022-12-25T01:01:00.505Z,10.10
2022-12-25T01:03:27.904Z,10.10
2022-12-25T01:05:58.646Z,10.10
2022-12-25T01:08:25.660Z,10.10
2022-12-25T01:10:57.047Z,10.10
2022-12-25T01:13:24.147Z,10.10
2022-12-25T01:15:52.498Z,10.10
2022-12-25T01:18:20.482Z,10.10
2022-12-25T01:20:47.601Z,10.10
2022-12-25T01:23:14.505Z,10.10
2022-12-25T01:25:41.301Z,10.10
2022-12-25T01:28:08.282Z,10.20
2022-12-25T01:30:35.465Z,10.20
2022-12-25T01:33:02.168Z,10.20
2022-12-25T01:35:28.756Z,10.20
2022-12-25T01:37:55.489Z,10.20
2022-12-25T01:40:22.159Z,10.20
2022-12-25T01:42:48.742Z,10.20
2022-12-25T01:45:33.129Z,10.20
2022-12-25T01:48:03.318Z,10.20
2022-12-25T01:50:30.086Z,10.20
2022-12-25T01:52:57.527Z,10.20
2022-12-25T01:55:24.943Z,10.20
2022-12-25T01:57:51.672Z,10.20
2022-12-25T02:00:18.379Z,10.10
2022-12-25T02:02:45.642Z,10.10
2022-12-25T02:05:23.804Z,10.10
2022-12-25T02:07:51.981Z,10.10
2022-12-25T02:10:19.182Z,10.10
2022-12-25T02:12:47.323Z,10.10
2022-12-25T02:15:20.889Z,10.10
2022-12-25T02:17:50.644Z,10.10
2022-12-25T02:20:33.123Z,10.10
2022-12-25T02:23:21.161Z,10.10
2022-12-25T02:26:04.231Z,10.10
2022-12-25T02:28:42.081Z,10.10
2022-12-25T02:31:21.611Z,10.00
2022-12-25T02:34:20.476Z,10.00
2022-12-25T02:37:02.520Z,9.90
2022-12-25T02:39:59.947Z,9.90
2022-12-25T02:43:14.594Z,9.90
2022-12-25T02:46:25.092Z,9.80
2022-12-25T02:49:21.700Z,9.80
2022-12-25T02:52:15.843Z,9.80
2022-12-25T02:55:06.276Z,9.90
2022-12-25T02:57:57.092Z,9.90
2022-12-25T03:00:42.792Z,9.90
2022-12-25T03:03:33.394Z,9.90
2022-12-25T03:06:21.914Z,9.90
2022-12-25T03:08:52.924Z,9.90
2022-12-25T03:11:31.959Z,9.80
2022-12-25T03:14:26.312Z,9.90
2022-12-25T03:16:57.745Z,9.90
2022-12-25T03:19:50.417Z,9.90
2022-12-25T03:22:49.580Z,9.80
2022-12-25T03:25:36.305Z,9.70
2022-12-25T03:28:04.152Z,9.60
2022-12-25T03:31:20.380Z,9.60
2022-12-25T03:34:33.923Z,9.50
2022-12-25T03:37:09.299Z,9.50
2022-12-25T03:40:22.784Z,9.50
2022-12-25T03:43:28.692Z,9.60
2022-12-25T03:46:05.099Z,9.60
2022-12-25T03:48:54.796Z,9.60
2022-12-25T03:51:48.651Z,9.60
2022-12-25T03:54:37.823Z,9.50
2022-12-25T03:57:36.881Z,9.40
2022-12-25T04:00:42.845Z,9.40
2022-12-25T04:03:27.901Z,9.50
2022-12-25T04:06:13.369Z,9.40
2022-12-25T04:08:58.856Z,9.40
2022-12-25T04:11:44.002Z,9.50
2022-12-25T04:14:29.418Z,9.50
2022-12-25T04:17:14.842Z,9.50
2022-12-25T04:20:00.424Z,9.40
2022-12-25T04:22:45.747Z,9.50
2022-12-25T04:25:31.366Z,9.50
2022-12-25T04:28:20.824Z,9.50
2022-12-25T04:31:06.309Z,9.50
2022-12-25T04:33:51.635Z,9.40
2022-12-25T04:36:18.483Z,9.50
2022-12-25T04:38:45.099Z,9.50
2022-12-25T04:41:13.482Z,9.50
2022-12-25T04:43:40.501Z,9.40
2022-12-25T04:46:07.324Z,9.40
2022-12-25T04:48:35.856Z,9.40
2022-12-25T04:51:13.437Z,9.40
2022-12-25T04:53:40.021Z,9.40
2022-12-25T04:56:06.731Z,9.30
2022-12-25T04:58:33.387Z,9.30
2022-12-25T05:01:01.393Z,9.20
2022-12-25T05:03:28.775Z,9.20
2022-12-25T05:05:55.445Z,9.10
2022-12-25T05:08:22.592Z,9.10
2022-12-25T05:10:49.239Z,9.10
2022-12-25T05:13:16.391Z,9.10
2022-12-25T05:15:43.645Z,9.00
2022-12-25T05:18:10.350Z,9.10
2022-12-25T05:20:40.177Z,9.10
2022-12-25T05:23:07.449Z,9.00
2022-12-25T05:25:34.024Z,9.00
2022-12-25T05:28:00.588Z,8.90
2022-12-25T05:30:27.194Z,8.90
2022-12-25T05:32:53.792Z,9.00
2022-12-25T05:35:21.170Z,8.90
2022-12-25T05:37:47.713Z,8.90
2022-12-25T05:40:14.424Z,8.90
2022-12-25T05:42:41.020Z,9.00
2022-12-25T05:45:08.233Z,9.00
2022-12-25T05:47:35.133Z,9.00
2022-12-25T05:50:02.066Z,9.00
2022-12-25T05:52:32.889Z,9.00
2022-12-25T05:55:00.012Z,9.10
2022-12-25T05:57:31.350Z,9.00
2022-12-25T05:59:58.048Z,9.10
2022-12-25T06:02:25.311Z,9.00
2022-12-25T06:04:52.195Z,9.00
2022-12-25T06:07:18.795Z,9.00
2022-12-25T06:09:45.353Z,9.00
2022-12-25T06:12:12.002Z,9.00
2022-12-25T06:14:38.575Z,9.00
2022-12-25T06:17:05.458Z,9.00
2022-12-25T06:19:32.078Z,9.00
2022-12-25T06:21:58.690Z,9.00
2022-12-25T06:24:25.348Z,9.00
2022-12-25T06:26:52.068Z,9.00
2022-12-25T06:29:18.710Z,9.00
2022-12-25T06:31:45.382Z,9.00
2022-12-25T06:34:12.033Z,9.00
2022-12-25T06:36:38.682Z,9.00
2022-12-25T06:39:05.299Z,9.10
2022-12-25T06:41:31.938Z,9.10
2022-12-25T06:44:00.586Z,9.20
2022-12-25T06:46:29.609Z,9.10
2022-12-25T06:48:59.090Z,9.20
2022-12-25T06:51:28.802Z,9.30
2022-12-25T06:53:56.363Z,9.30
2022-12-25T06:56:28.007Z,9.40
2022-12-25T06:59:01.058Z,9.40
2022-12-25T07:01:35.169Z,9.40
2022-12-25T07:04:07.017Z,9.40
2022-12-25T07:06:33.925Z,9.40
2022-12-25T07:09:00.557Z,9.40
2022-12-25T07:11:28.725Z,9.30
2022-12-25T07:13:55.521Z,9.30
2022-12-25T07:16:22.292Z,9.30
2022-12-25T07:18:48.908Z,9.30
2022-12-25T07:21:17.848Z,9.40
2022-12-25T07:23:46.373Z,9.30
2022-12-25T07:26:14.174Z,9.30
2022-12-25T07:28:41.151Z,9.20
2022-12-25T07:31:11.546Z,9.20
2022-12-25T07:33:38.699Z,9.20
2022-12-25T07:36:05.890Z,9.20
2022-12-25T07:38:33.483Z,9.10
2022-12-25T07:41:00.413Z,9.00
2022-12-25T07:43:27.605Z,9.10
2022-12-25T07:45:56.510Z,9.10
2022-12-25T07:48:23.316Z,9.00
2022-12-25T07:51:05.707Z,9.00
2022-12-25T07:53:35.328Z,9.10
2022-12-25T07:56:09.045Z,9.10
2022-12-25T07:58:36.181Z,9.10
2022-12-25T08:01:10.445Z,9.10
2022-12-25T08:03:38.680Z,9.10
2022-12-25T08:06:08.558Z,9.10
2022-12-25T08:08:37.410Z,9.20
2022-12-25T08:11:06.846Z,9.20
2022-12-25T08:13:35.450Z,9.20
2022-12-25T08:16:06.227Z,9.20
2022-12-25T08:18:32.846Z,9.30
2022-12-25T08:21:08.597Z,9.30
2022-12-25T08:23:37.348Z,9.30
2022-12-25T08:26:06.176Z,9.30
2022-12-25T08:28:35.112Z,9.30
2022-12-25T08:31:20.485Z,9.20
2022-12-25T08:33:48.572Z,9.20
2022-12-25T08:36:16.037Z,9.20
2022-12-25T08:38:43.136Z,9.20
2022-12-25T08:41:11.328Z,9.20
2022-12-25T08:43:39.292Z,9.20
2022-12-25T08:46:09.134Z,9.20
2022-12-25T08:48:36.987Z,9.30
2022-12-25T08:51:05.168Z,9.30
2022-12-25T08:53:32.051Z,9.30
2022-12-25T08:56:01.492Z,9.30
2022-12-25T08:58:28.494Z,9.30
2022-12-25T09:00:56.695Z,9.30
2022-12-25T09:03:24.303Z,9.30
2022-12-25T09:05:52.481Z,9.30
2022-12-25T09:08:20.102Z,9.30
2022-12-25T09:10:46.695Z,9.40
2022-12-25T09:13:13.317Z,9.30
2022-12-25T09:15:40.890Z,9.30
2022-12-25T09:18:07.494Z,9.30
2022-12-25T09:20:34.060Z,9.30
2022-12-25T09:23:00.692Z,9.30
2022-12-25T09:25:28.058Z,9.30
2022-12-25T09:27:56.636Z,9.30
2022-12-25T09:30:23.286Z,9.40
2022-12-25T09:32:50.125Z,9.40
2022-12-25T09:35:18.902Z,9.40
2022-12-25T09:37:45.758Z,9.40
2022-12-25T09:40:17.421Z,9.40
2022-12-25T09:42:44.851Z,9.40
2022-12-25T09:45:19.559Z,9.50
2022-12-25T09:47:48.558Z,9.50
2022-12-25T09:50:30.160Z,9.50
2022-12-25T09:53:26.892Z,9.50
2022-12-25T09:56:22.363Z,9.60
2022-12-25T09:58:48.979Z,9.50
2022-12-25T10:01:28.893Z,9.50
2022-12-25T10:04:13.389Z,9.50
2022-12-25T10:07:14.801Z,9.60
2022-12-25T10:10:10.778Z,9.60
2022-12-25T10:12:56.897Z,9.60
2022-12-25T10:15:58.970Z,9.60
2022-12-25T10:18:35.038Z,9.60
2022-12-25T10:21:07.961Z,9.70
2022-12-25T10:23:41.976Z,9.70
2022-12-25T10:26:25.032Z,9.70
2022-12-25T10:28:59.895Z,9.80
2022-12-25T10:31:29.077Z,9.80
2022-12-25T10:33:56.182Z,9.90
2022-12-25T10:36:26.415Z,10.00
2022-12-25T10:38:54.372Z,10.00
2022-12-25T10:41:26.366Z,10.00
2022-12-25T10:43:57.053Z,10.00
2022-12-25T10:46:27.207Z,10.00
2022-12-25T10:49:00.199Z,10.00
2022-12-25T10:51:44.693Z,10.00
2022-12-25T10:54:32.371Z,10.10
2022-12-25T10:57:04.257Z,10.20
2022-12-25T10:59:35.870Z,10.30
2022-12-25T11:02:23.753Z,10.20
2022-12-25T11:04:52.280Z,10.20
2022-12-25T11:07:18.911Z,10.20
2022-12-25T11:10:04.850Z,10.20
2022-12-25T11:12:36.551Z,10.20
2022-12-25T11:15:07.616Z,10.30
2022-12-25T11:17:35.940Z,10.20
2022-12-25T11:20:02.714Z,10.20
2022-12-25T11:22:29.409Z,10.20
2022-12-25T11:24:56.021Z,10.20
2022-12-25T11:27:30.164Z,10.20
2022-12-25T11:30:01.843Z,10.20
2022-12-25T11:32:44.803Z,10.20
2022-12-25T11:35:17.415Z,10.10
2022-12-25T11:37:48.383Z,10.20
2022-12-25T11:40:18.222Z,10.20
2022-12-25T11:42:51.174Z,10.20
2022-12-25T11:45:24.108Z,10.20
2022-12-25T11:47:52.907Z,10.20
2022-12-25T11:50:45.159Z,10.30
2022-12-25T11:53:18.649Z,10.30
2022-12-25T11:55:54.858Z,10.40
2022-12-25T11:58:36.249Z,10.40
2022-12-25T12:01:11.820Z,10.60
2022-12-25T12:03:41.298Z,10.60
2022-12-25T12:06:34.689Z,10.60
2022-12-25T12:09:35.069Z,10.60
2022-12-25T12:12:16.108Z,10.70
2022-12-25T12:15:18.359Z,10.70
2022-12-25T12:17:45.011Z,10.80
2022-12-25T12:20:29.501Z,10.70
2022-12-25T12:22:56.626Z,10.70
2022-12-25T12:25:23.397Z,10.80
2022-12-25T12:28:02.819Z,10.80
2022-12-25T12:30:35.262Z,10.80
2022-12-25T12:33:04.692Z,10.80
2022-12-25T12:35:37.004Z,10.80
2022-12-25T12:38:16.118Z,10.80
2022-12-25T12:40:54.947Z,10.80
2022-12-25T12:43:49.378Z,10.80
2022-12-25T12:46:35.718Z,10.70
2022-12-25T12:49:31.697Z,10.80
2022-12-25T12:52:25.556Z,10.80
2022-12-25T12:54:59.796Z,10.90
2022-12-25T12:57:29.788Z,11.00
2022-12-25T12:59:59.913Z,10.90
2022-12-25T13:02:48.499Z,10.90
2022-12-25T13:05:39.864Z,10.90
2022-12-25T13:08:21.564Z,10.90
2022-12-25T13:11:03.378Z,10.80
2022-12-25T13:13:40.618Z,10.90
2022-12-25T13:16:19.582Z,10.90
2022-12-25T13:18:46.588Z,10.90
2022-12-25T13:21:19.363Z,10.90
2022-12-25T13:23:46.024Z,10.90
2022-12-25T13:26:15.878Z,10.90
2022-12-25T13:28:42.757Z,10.90
2022-12-25T13:31:20.557Z,10.90
2022-12-25T13:33:56.080Z,10.90
2022-12-25T13:36:22.836Z,10.90
2022-12-25T13:38:52.232Z,10.90
2022-12-25T13:41:43.230Z,11.00
2022-12-25T13:44:22.549Z,11.00
2022-12-25T13:46:49.217Z,11.00
2022-12-25T13:49:21.532Z,11.10
2022-12-25T13:51:48.886Z,11.10
2022-12-25T13:54:17.883Z,11.10
2022-12-25T13:56:49.375Z,11.10
2022-12-25T13:59:18.692Z,11.10
2022-12-25T14:01:46.322Z,11.00
2022-12-25T14:04:16.106Z,11.00
2022-12-25T14:06:42.830Z,10.90
2022-12-25T14:09:11.392Z,10.90
2022-12-25T14:11:40.234Z,10.90
2022-12-25T14:14:17.740Z,11.00
2022-12-25T14:16:48.917Z,10.90
2022-12-25T14:19:26.323Z,10.80
2022-12-25T14:22:03.928Z,10.70
2022-12-25T14:24:33.679Z,10.70
2022-12-25T14:27:02.886Z,10.70
2022-12-25T14:29:44.003Z,10.60
2022-12-25T14:32:18.000Z,10.60
2022-12-25T14:34:46.794Z,10.50
2022-12-25T14:37:24.090Z,10.40
2022-12-25T14:40:02.503Z,10.40
2022-12-25T14:42:32.272Z,10.40
2022-12-25T14:45:08.154Z,10.30
2022-12-25T14:47:51.466Z,10.40
2022-12-25T14:50:39.327Z,10.30
2022-12-25T14:53:18.291Z,10.30
2022-12-25T14:55:53.025Z,10.30
2022-12-25T14:58:26.371Z,10.30
2022-12-25T15:01:01.660Z,10.30
2022-12-25T15:03:37.113Z,10.30
2022-12-25T15:06:31.997Z,10.30
2022-12-25T15:09:01.672Z,10.30
2022-12-25T15:11:29.192Z,10.20
2022-12-25T15:13:56.277Z,10.20
2022-12-25T15:16:29.180Z,10.20
2022-12-25T15:18:56.464Z,10.20
2022-12-25T15:21:33.056Z,10.30
2022-12-25T15:24:00.126Z,10.30
2022-12-25T15:26:29.519Z,10.30
2022-12-25T15:28:56.334Z,10.30
2022-12-25T15:31:26.055Z,10.20
2022-12-25T15:33:57.991Z,10.20
2022-12-25T15:36:25.565Z,10.20
2022-12-25T15:38:52.249Z,10.10
2022-12-25T15:41:55.102Z,10.20
2022-12-25T15:44:22.721Z,10.20
2022-12-25T15:46:49.639Z,10.20
2022-12-25T15:49:16.706Z,10.10
2022-12-25T15:51:44.069Z,10.10
2022-12-25T15:54:11.100Z,10.10
2022-12-25T15:56:46.806Z,10.00
2022-12-25T15:59:15.234Z,10.00
2022-12-25T16:01:54.525Z,9.90
2022-12-25T16:04:22.418Z,9.90
2022-12-25T16:06:49.802Z,9.80
2022-12-25T16:09:17.566Z,9.80
2022-12-25T16:11:44.353Z,9.70
2022-12-25T16:14:11.008Z,9.70
2022-12-25T16:16:38.071Z,9.70
2022-12-25T16:19:05.345Z,9.70
2022-12-25T16:21:39.780Z,9.70
2022-12-25T16:24:07.802Z,9.80
2022-12-25T16:26:34.907Z,9.80
2022-12-25T16:29:06.814Z,9.70
2022-12-25T16:31:34.886Z,9.70
2022-12-25T16:34:01.686Z,9.60
2022-12-25T16:36:28.493Z,9.60
2022-12-25T16:38:55.254Z,9.60
2022-12-25T16:41:21.963Z,9.50
2022-12-25T16:43:48.911Z,9.40
2022-12-25T16:46:18.773Z,9.30
2022-12-25T16:48:45.531Z,9.30
2022-12-25T16:51:15.984Z,9.20
2022-12-25T16:53:43.710Z,9.20
2022-12-25T16:56:16.106Z,9.10
2022-12-25T16:58:46.155Z,9.10
2022-12-25T17:01:15.813Z,9.10
2022-12-25T17:03:43.102Z,9.00
2022-12-25T17:06:14.864Z,9.00
2022-12-25T17:08:42.306Z,9.00
2022-12-25T17:11:09.314Z,9.00
2022-12-25T17:13:36.276Z,8.90
2022-12-25T17:16:17.185Z,8.80
2022-12-25T17:18:44.405Z,8.70
2022-12-25T17:21:11.008Z,8.70
2022-12-25T17:23:38.791Z,8.60
2022-12-25T17:26:06.144Z,8.60
2022-12-25T17:28:34.549Z,8.50
2022-12-25T17:31:06.294Z,8.50
2022-12-25T17:33:36.124Z,8.50
2022-12-25T17:36:04.354Z,8.50
2022-12-25T17:38:32.595Z,8.50
2022-12-25T17:41:02.336Z,8.50
2022-12-25T17:43:29.199Z,8.60
2022-12-25T17:45:55.775Z,8.60
2022-12-25T17:48:22.503Z,8.60
2022-12-25T17:50:49.403Z,8.60
2022-12-25T17:53:16.014Z,8.50
2022-12-25T17:55:42.889Z,8.50
2022-12-25T17:58:09.576Z,8.50
2022-12-25T18:00:36.715Z,8.50
2022-12-25T18:03:10.818Z,8.40
2022-12-25T18:05:38.300Z,8.40
2022-12-25T18:08:05.279Z,8.40
2022-12-25T18:10:40.334Z,8.40
2022-12-25T18:13:07.034Z,8.40
2022-12-25T18:15:40.308Z,8.30
2022-12-25T18:18:08.864Z,8.30
2022-12-25T18:20:40.371Z,8.30
2022-12-25T18:23:08.330Z,8.30
2022-12-25T18:25:39.140Z,8.20
2022-12-25T18:28:05.754Z,8.20
2022-12-25T18:30:32.472Z,8.20
2022-12-25T18:32:59.045Z,8.20
2022-12-25T18:35:29.699Z,8.10
2022-12-25T18:37:56.441Z,8.10
2022-12-25T18:40:23.176Z,8.10
2022-12-25T18:42:52.909Z,8.00
2022-12-25T18:45:21.436Z,8.00
2022-12-25T18:47:48.051Z,8.00
2022-12-25T18:50:15.527Z,7.90
2022-12-25T18:52:47.536Z,8.00
2022-12-25T18:55:17.863Z,7.80
2022-12-25T18:57:44.489Z,7.80
2022-12-25T19:00:11.357Z,7.70
2022-12-25T19:02:38.086Z,7.70
2022-12-25T19:05:05.606Z,7.70
2022-12-25T19:07:32.287Z,7.70
2022-12-25T19:09:58.855Z,7.70
2022-12-25T19:12:25.518Z,7.70
2022-12-25T19:14:52.758Z,7.60
2022-12-25T19:17:19.568Z,7.60
2022-12-25T19:19:46.312Z,7.60
2022-12-25T19:22:13.198Z,7.70
2022-12-25T19:24:39.954Z,7.60
2022-12-25T19:27:06.977Z,7.70
2022-12-25T19:29:33.586Z,7.70
2022-12-25T19:32:00.552Z,7.70
2022-12-25T19:34:27.215Z,7.70
2022-12-25T19:36:53.771Z,7.60
2022-12-25T19:39:20.481Z,7.60
2022-12-25T19:41:47.359Z,7.60
2022-12-25T19:44:15.107Z,7.50
2022-12-25T19:46:41.941Z,7.40
2022-12-25T19:49:12.778Z,7.40
2022-12-25T19:51:44.799Z,7.40
2022-12-25T19:54:16.645Z,7.30
2022-12-25T19:56:43.456Z,7.30
2022-12-25T19:59:11.797Z,7.30
2022-12-25T20:01:39.040Z,7.20
2022-12-25T20:04:07.956Z,7.20
2022-12-25T20:06:36.010Z,7.20
2022-12-25T20:09:06.771Z,7.20
2022-12-25T20:11:35.175Z,7.10
2022-12-25T20:14:01.826Z,7.10
2022-12-25T20:16:28.497Z,7.10
2022-12-25T20:18:56.435Z,7.10
2022-12-25T20:21:23.774Z,7.10
2022-12-25T20:23:52.601Z,7.00
2022-12-25T20:26:22.879Z,6.90
2022-12-25T20:28:49.919Z,6.90
2022-12-25T20:31:27.170Z,6.90
2022-12-25T20:33:55.251Z,6.80
2022-12-25T20:36:22.364Z,6.80
2022-12-25T20:38:49.027Z,6.70
2022-12-25T20:41:28.367Z,6.70
2022-12-25T20:43:56.216Z,6.60
2022-12-25T20:46:23.504Z,6.60
2022-12-25T20:48:50.215Z,6.60
2022-12-25T20:51:22.012Z,6.60
2022-12-25T20:53:49.267Z,6.60
2022-12-25T20:56:18.097Z,6.70
2022-12-25T20:58:44.788Z,6.70
2022-12-25T21:01:13.633Z,6.70
2022-12-25T21:03:41.314Z,6.70
2022-12-25T21:06:08.979Z,6.70
2022-12-25T21:08:36.500Z,6.70
2022-12-25T21:11:03.959Z,6.60
2022-12-25T21:13:35.894Z,6.70
2022-12-25T21:16:05.758Z,6.70
2022-12-25T21:18:32.377Z,6.60
2022-12-25T21:20:59.476Z,6.60
2022-12-25T21:23:28.868Z,6.60
2022-12-25T21:25:55.538Z,6.60
2022-12-25T21:28:23.068Z,6.60
2022-12-25T21:30:49.733Z,6.50
2022-12-25T21:33:35.244Z,6.50
2022-12-25T21:36:11.647Z,6.50
2022-12-25T21:38:38.825Z,6.50
2022-12-25T21:41:10.901Z,6.50
2022-12-25T21:43:39.552Z,6.50
2022-12-25T21:46:08.721Z,6.50
2022-12-25T21:48:36.837Z,6.40
2022-12-25T21:51:24.150Z,6.40
2022-12-25T21:53:50.930Z,6.40
2022-12-25T21:56:18.116Z,6.40
2022-12-25T21:58:44.742Z,6.30
2022-12-25T22:01:11.758Z,6.30
2022-12-25T22:03:38.538Z,6.30
2022-12-25T22:06:23.910Z,6.40
2022-12-25T22:08:50.559Z,6.40
2022-12-25T22:11:35.832Z,6.40
2022-12-25T22:14:50.491Z,6.30
2022-12-25T22:17:27.920Z,6.20
2022-12-25T22:19:55.316Z,6.10
2022-12-25T22:22:24.709Z,6.10
2022-12-25T22:24:53.778Z,6.10
2022-12-25T22:27:21.208Z,6.20
2022-12-25T22:29:48.726Z,6.20
2022-12-25T22:32:16.360Z,6.30
2022-12-25T22:34:43.218Z,6.30
2022-12-25T22:37:14.765Z,6.30
2022-12-25T22:39:41.500Z,6.30
2022-12-25T22:42:08.160Z,6.20
2022-12-25T22:44:35.035Z,6.30
2022-12-25T22:47:01.635Z,6.20
2022-12-25T22:49:28.286Z,6.30
2022-12-25T22:51:55.049Z,6.30
2022-12-25T22:54:23.312Z,6.20
2022-12-25T22:56:51.988Z,6.30
2022-12-25T22:59:21.252Z,6.30
2022-12-25T23:01:49.817Z,6.20
2022-12-25T23:04:17.348Z,6.30
2022-12-25T23:06:44.247Z,6.30
2022-12-25T23:09:18.857Z,6.30
2022-12-25T23:11:48.810Z,6.30
2022-12-25T23:14:34.605Z,6.30
2022-12-25T23:17:01.172Z,6.30
2022-12-25T23:19:46.639Z,6.40
2022-12-25T23:22:31.952Z,6.40
2022-12-25T23:25:17.304Z,6.20
2022-12-25T23:27:45.039Z,6.20
2022-12-25T23:30:15.443Z,6.10
2022-12-25T23:32:43.367Z,6.00
2022-12-25T23:35:10.585Z,6.10
2022-12-25T23:37:37.258Z,6.10
2022-12-25T23:40:04.271Z,6.10
2022-12-25T23:42:30.925Z,6.00
2022-12-25T23:44:57.580Z,6.00
2022-12-25T23:47:24.288Z,5.90
2022-12-25T23:49:50.869Z,5.90
2022-12-25T23:52:17.435Z,5.90
2022-12-25T23:54:44.092Z,5.80
2022-12-25T23:57:10.704Z,5.90
2022-12-25T23:59:37.321Z,5.90
